createdAt,value
2018-03-11T00:02:10.707Z,10.12
2018-03-11T00:04:39.056Z,10.10
2018-03-11T00:07:07.476Z,10.11
2018-03-11T00:09:35.870Z,10.05
2018-03-11T00:12:04.210Z,10.06
2018-03-11T00:14:32.549Z,10.10
2018-03-11T00:17:00.939Z,10.06
2018-03-11T00:19:29.268Z,10.01
2018-03-11T00:21:57.580Z,10.05
2018-03-11T00:24:25.914Z,10.09
2018-03-11T00:26:54.519Z,10.11
2018-03-11T00:29:22.858Z,10.13
2018-03-11T00:31:51.219Z,10.08
2018-03-11T00:34:19.564Z,10.16
2018-03-11T00:36:47.886Z,10.19
2018-03-11T00:39:20.236Z,10.22
2018-03-11T00:41:48.553Z,10.21
2018-03-11T00:44:16.940Z,10.22
2018-03-11T00:46:50.891Z,10.23
2018-03-11T00:49:19.218Z,10.21
2018-03-11T00:51:47.542Z,10.22
2018-03-11T00:54:16.917Z,10.20
2018-03-11T00:56:45.232Z,10.20
2018-03-11T00:59:13.561Z,10.21
2018-03-11T01:01:41.932Z,10.23
2018-03-11T01:04:10.344Z,10.27
2018-03-11T01:06:38.701Z,10.28
2018-03-11T01:09:07.038Z,10.30
2018-03-11T01:11:35.353Z,10.33
2018-03-11T01:14:03.697Z,10.33
2018-03-11T01:16:32.019Z,10.35
2018-03-11T01:19:00.357Z,10.35
2018-03-11T01:21:28.754Z,10.40
2018-03-11T01:23:57.105Z,10.38
2018-03-11T01:26:25.428Z,10.36
2018-03-11T01:28:53.766Z,10.36
2018-03-11T01:31:22.119Z,10.42
2018-03-11T01:33:50.442Z,10.45
2018-03-11T01:36:18.774Z,10.40
2018-03-11T01:38:47.122Z,10.43
2018-03-11T01:41:15.486Z,10.38
2018-03-11T01:43:44.116Z,10.43
2018-03-11T01:46:12.453Z,10.43
2018-03-11T01:48:40.786Z,10.43
2018-03-11T01:51:09.123Z,10.44
2018-03-11T01:53:37.488Z,10.34
2018-03-11T01:56:06.174Z,10.40
2018-03-11T01:58:34.493Z,10.35
2018-03-11T02:01:03.577Z,10.35
2018-03-11T02:03:31.912Z,10.35
2018-03-11T02:06:00.253Z,10.37
2018-03-11T02:08:28.602Z,10.37
2018-03-11T02:10:56.934Z,10.47
2018-03-11T02:13:25.282Z,10.46
2018-03-11T02:15:53.614Z,10.45
2018-03-11T02:18:22.025Z,10.45
2018-03-11T02:20:50.414Z,10.43
2018-03-11T02:23:18.740Z,10.37
2018-03-11T02:25:47.098Z,10.29
2018-03-11T02:28:15.425Z,10.27
2018-03-11T02:30:43.763Z,10.27
2018-03-11T02:33:12.101Z,10.26
2018-03-11T02:35:40.482Z,10.25
2018-03-11T02:38:08.964Z,10.19
2018-03-11T02:40:37.294Z,10.16
2018-03-11T02:43:05.639Z,10.15
2018-03-11T02:45:33.970Z,10.12
2018-03-11T02:48:02.297Z,10.14
2018-03-11T02:50:30.628Z,10.15
2018-03-11T02:52:58.962Z,10.17
2018-03-11T02:55:27.332Z,10.18
2018-03-11T02:57:55.703Z,10.12
2018-03-11T03:00:24.023Z,10.12
2018-03-11T03:02:52.890Z,10.14
2018-03-11T03:05:21.217Z,10.15
2018-03-11T03:07:49.573Z,10.14
2018-03-11T03:10:17.895Z,10.14
2018-03-11T03:12:46.229Z,10.20
2018-03-11T03:15:14.548Z,10.24
2018-03-11T03:17:42.894Z,10.26
2018-03-11T03:20:11.214Z,10.23
2018-03-11T03:22:39.557Z,10.27
2018-03-11T03:25:07.877Z,10.25
2018-03-11T03:27:36.212Z,10.27
2018-03-11T03:30:04.543Z,10.31
2018-03-11T03:32:32.864Z,10.29
2018-03-11T03:35:01.194Z,10.26
2018-03-11T03:37:29.513Z,10.31
2018-03-11T03:39:57.850Z,10.27
2018-03-11T03:42:26.203Z,10.31
2018-03-11T03:44:54.535Z,10.30
2018-03-11T03:47:22.924Z,10.32
2018-03-11T03:49:51.316Z,10.32
2018-03-11T03:52:19.711Z,10.31
2018-03-11T03:54:48.049Z,10.30
2018-03-11T03:57:16.428Z,10.26
2018-03-11T03:59:44.752Z,10.27
2018-03-11T04:02:13.181Z,10.27
2018-03-11T04:04:41.515Z,10.32
2018-03-11T04:07:09.954Z,10.23
2018-03-11T04:09:38.488Z,10.17
2018-03-11T04:12:06.784Z,10.21
2018-03-11T04:14:35.118Z,10.17
2018-03-11T04:17:03.436Z,10.16
2018-03-11T04:19:31.770Z,10.20
2018-03-11T04:22:00.125Z,10.14
2018-03-11T04:24:29.229Z,10.19
2018-03-11T04:26:57.932Z,10.21
2018-03-11T04:29:26.309Z,10.18
2018-03-11T04:31:54.661Z,10.18
2018-03-11T04:34:22.992Z,10.10
2018-03-11T04:36:51.335Z,10.10
2018-03-11T04:39:19.644Z,10.06
2018-03-11T04:41:47.985Z,10.06
2018-03-11T04:44:16.933Z,10.04
2018-03-11T04:46:45.262Z,9.93
2018-03-11T04:49:13.571Z,9.90
2018-03-11T04:51:41.926Z,9.84
2018-03-11T04:54:10.235Z,9.76
2018-03-11T04:56:38.559Z,9.73
2018-03-11T04:59:07.169Z,9.69
2018-03-11T05:01:35.496Z,9.76
2018-03-11T05:04:03.816Z,9.74
2018-03-11T05:06:32.150Z,9.80
2018-03-11T05:09:00.549Z,9.78
2018-03-11T05:11:28.885Z,9.73
2018-03-11T05:13:57.214Z,9.78
2018-03-11T05:16:25.819Z,9.83
2018-03-11T05:18:54.264Z,9.85
2018-03-11T05:21:22.595Z,9.87
2018-03-11T05:23:51.521Z,10.02
2018-03-11T05:26:19.854Z,10.04
2018-03-11T05:28:48.298Z,10.09
2018-03-11T05:31:17.512Z,10.08
2018-03-11T05:33:45.900Z,10.11
2018-03-11T05:36:14.289Z,10.06
2018-03-11T05:38:42.628Z,10.07
2018-03-11T05:41:10.952Z,10.08
2018-03-11T05:43:39.361Z,10.12
2018-03-11T05:46:07.698Z,10.11
2018-03-11T05:48:36.020Z,10.16
2018-03-11T05:51:04.438Z,10.18
2018-03-11T05:53:32.827Z,10.19
2018-03-11T05:56:01.163Z,10.20
2018-03-11T05:58:29.489Z,10.18
2018-03-11T06:00:57.824Z,10.20
2018-03-11T06:03:26.147Z,10.16
2018-03-11T06:05:54.493Z,10.19
2018-03-11T06:08:22.894Z,10.22
2018-03-11T06:10:51.223Z,10.27
2018-03-11T06:13:19.715Z,10.32
2018-03-11T06:15:48.035Z,10.31
2018-03-11T06:18:16.362Z,10.35
2018-03-11T06:20:44.694Z,10.35
2018-03-11T06:23:13.108Z,10.36
2018-03-11T06:25:41.518Z,10.35
2018-03-11T06:28:09.874Z,10.39
2018-03-11T06:30:38.228Z,10.49
2018-03-11T06:33:07.093Z,10.50
2018-03-11T06:35:35.441Z,10.52
2018-03-11T06:38:03.776Z,10.55
2018-03-11T06:40:33.231Z,10.65
2018-03-11T06:43:01.570Z,10.69
2018-03-11T06:45:29.900Z,10.69
2018-03-11T06:47:58.264Z,10.71
2018-03-11T06:50:26.731Z,10.76
2018-03-11T06:52:55.169Z,10.80
2018-03-11T06:55:23.686Z,10.80
2018-03-11T06:57:52.071Z,10.72
2018-03-11T07:00:20.424Z,10.78
2018-03-11T07:02:49.848Z,10.82
2018-03-11T07:05:18.182Z,10.89
2018-03-11T07:07:46.706Z,10.87
2018-03-11T07:10:15.143Z,10.94
2018-03-11T07:12:43.481Z,10.89
2018-03-11T07:15:11.811Z,10.99
2018-03-11T07:17:40.142Z,11.07
2018-03-11T07:20:10.184Z,11.15
2018-03-11T07:22:38.786Z,11.26
2018-03-11T07:25:07.197Z,11.43
2018-03-11T07:27:35.515Z,11.45
2018-03-11T07:30:03.882Z,11.76
2018-03-11T07:32:32.225Z,11.98
2018-03-11T07:35:00.559Z,12.12
2018-03-11T07:37:28.915Z,12.17
2018-03-11T07:39:57.217Z,12.04
2018-03-11T07:42:25.553Z,11.96
2018-03-11T07:44:53.904Z,12.28
2018-03-11T07:47:23.090Z,12.43
2018-03-11T07:49:52.142Z,12.74
2018-03-11T07:52:20.491Z,12.58
2018-03-11T07:54:48.818Z,12.55
2018-03-11T07:57:17.133Z,12.48
2018-03-11T07:59:45.455Z,12.67
2018-03-11T08:02:13.818Z,12.95
2018-03-11T08:04:42.176Z,13.00
2018-03-11T08:07:10.569Z,13.01
2018-03-11T08:09:38.933Z,13.08
2018-03-11T08:12:07.250Z,13.05
2018-03-11T08:14:35.622Z,13.11
2018-03-11T08:17:03.942Z,13.20
2018-03-11T08:19:32.303Z,13.36
2018-03-11T08:22:00.709Z,13.27
2018-03-11T08:24:29.113Z,13.17
2018-03-11T08:26:57.444Z,13.43
2018-03-11T08:29:25.834Z,13.39
2018-03-11T08:31:54.277Z,14.11
2018-03-11T08:34:22.681Z,15.51
2018-03-11T08:36:51.072Z,16.29
2018-03-11T08:39:19.413Z,17.12
2018-03-11T08:41:47.745Z,18.79
2018-03-11T08:44:16.106Z,18.72
2018-03-11T08:46:44.520Z,18.53
2018-03-11T08:49:12.980Z,18.51
2018-03-11T08:51:41.317Z,17.92
2018-03-11T08:54:09.659Z,17.41
2018-03-11T08:56:37.978Z,17.69
2018-03-11T08:59:06.345Z,17.66
2018-03-11T09:01:34.659Z,17.66
2018-03-11T09:04:02.994Z,18.33
2018-03-11T09:06:31.365Z,18.89
2018-03-11T09:08:59.789Z,17.93
2018-03-11T09:11:28.109Z,18.81
2018-03-11T09:13:56.435Z,19.42
2018-03-11T09:16:24.764Z,18.61
2018-03-11T09:18:53.138Z,19.48
2018-03-11T09:21:21.511Z,18.91
2018-03-11T09:23:50.408Z,19.39
2018-03-11T09:26:18.799Z,19.08
2018-03-11T09:28:47.171Z,20.18
2018-03-11T09:31:15.502Z,19.83
2018-03-11T09:33:43.862Z,20.49
2018-03-11T09:36:12.558Z,19.12
2018-03-11T09:38:40.964Z,18.79
2018-03-11T09:41:09.268Z,19.46
2018-03-11T09:43:37.592Z,19.45
2018-03-11T09:46:06.456Z,18.51
2018-03-11T09:48:34.774Z,19.28
2018-03-11T09:51:03.116Z,19.03
2018-03-11T09:53:31.430Z,19.93
2018-03-11T09:55:59.911Z,18.99
2018-03-11T09:58:28.277Z,18.65
2018-03-11T10:00:56.682Z,18.45
2018-03-11T10:03:25.068Z,18.46
2018-03-11T10:05:53.427Z,18.88
2018-03-11T10:08:21.742Z,18.13
2018-03-11T10:10:50.345Z,18.47
2018-03-11T10:13:18.654Z,18.77
2018-03-11T10:15:47.030Z,18.54
2018-03-11T10:18:15.381Z,18.54
2018-03-11T10:20:43.816Z,18.58
2018-03-11T10:23:12.248Z,18.65
2018-03-11T10:25:40.591Z,17.95
2018-03-11T10:28:08.980Z,17.92
2018-03-11T10:30:37.318Z,17.84
2018-03-11T10:33:05.638Z,18.56
2018-03-11T10:35:34.060Z,19.17
2018-03-11T10:38:02.451Z,19.62
2018-03-11T10:40:30.830Z,19.56
2018-03-11T10:42:59.185Z,19.36
2018-03-11T10:45:27.494Z,19.69
2018-03-11T10:47:55.895Z,19.14
2018-03-11T10:50:24.294Z,19.45
2018-03-11T10:52:52.705Z,19.87
2018-03-11T10:55:21.088Z,20.66
2018-03-11T10:57:49.496Z,20.88
2018-03-11T11:00:17.801Z,19.87
2018-03-11T11:02:46.125Z,19.84
2018-03-11T11:05:14.470Z,19.98
2018-03-11T11:07:42.794Z,19.62
2018-03-11T11:10:13.298Z,19.59
2018-03-11T11:12:41.659Z,20.11
2018-03-11T11:15:09.964Z,20.49
2018-03-11T11:17:38.300Z,21.20
2018-03-11T11:20:06.615Z,20.78
2018-03-11T11:22:34.955Z,21.17
2018-03-11T11:25:03.280Z,22.26
2018-03-11T11:27:31.600Z,20.77
2018-03-11T11:29:59.927Z,20.11
2018-03-11T11:32:28.280Z,20.14
2018-03-11T11:34:56.595Z,20.39
2018-03-11T11:37:24.974Z,20.66
2018-03-11T11:39:53.284Z,20.51
2018-03-11T11:42:21.610Z,19.55
2018-03-11T11:44:50.147Z,19.04
2018-03-11T11:47:18.752Z,18.33
2018-03-11T11:49:47.135Z,18.70
2018-03-11T11:52:15.457Z,18.98
2018-03-11T11:54:43.785Z,19.80
2018-03-11T11:57:12.099Z,20.42
2018-03-11T11:59:41.076Z,20.30
2018-03-11T12:02:09.444Z,20.61
2018-03-11T12:04:38.656Z,19.97
2018-03-11T12:07:07.048Z,20.00
2018-03-11T12:09:35.368Z,20.48
2018-03-11T12:12:03.773Z,21.25
2018-03-11T12:14:32.185Z,21.30
2018-03-11T12:17:00.509Z,21.61
2018-03-11T12:19:28.842Z,22.66
2018-03-11T12:21:57.144Z,22.34
2018-03-11T12:24:25.497Z,22.10
2018-03-11T12:26:53.796Z,22.66
2018-03-11T12:29:22.125Z,22.57
2018-03-11T12:31:50.507Z,22.83
2018-03-11T12:34:18.845Z,22.47
2018-03-11T12:36:47.167Z,23.25
2018-03-11T12:39:15.570Z,22.90
2018-03-11T12:41:43.957Z,21.75
2018-03-11T12:44:12.652Z,21.56
2018-03-11T12:46:41.062Z,21.43
2018-03-11T12:49:09.439Z,21.16
2018-03-11T12:51:37.769Z,21.17
2018-03-11T12:54:06.147Z,20.79
2018-03-11T12:56:34.471Z,21.05
2018-03-11T12:59:02.781Z,20.36
2018-03-11T13:01:31.205Z,20.67
2018-03-11T13:03:59.587Z,20.75
2018-03-11T13:06:27.909Z,20.86
2018-03-11T13:08:56.241Z,21.45
2018-03-11T13:11:24.569Z,21.71
2018-03-11T13:13:52.883Z,21.80
2018-03-11T13:16:21.221Z,20.95
2018-03-11T13:18:49.531Z,20.86
2018-03-11T13:21:17.866Z,20.58
2018-03-11T13:23:46.180Z,20.45
2018-03-11T13:26:14.521Z,20.91
2018-03-11T13:28:52.934Z,20.73
2018-03-11T13:31:21.329Z,20.87
2018-03-11T13:34:01.490Z,21.18
2018-03-11T13:36:29.823Z,20.86
2018-03-11T13:39:10.145Z,20.93
2018-03-11T13:41:38.463Z,21.27
2018-03-11T13:44:06.785Z,21.74
2018-03-11T13:46:46.984Z,22.13
2018-03-11T13:49:15.277Z,21.40
2018-03-11T13:51:55.437Z,21.35
2018-03-11T13:54:24.380Z,22.04
2018-03-11T13:57:04.532Z,22.64
2018-03-11T13:59:32.870Z,22.47
2018-03-11T14:02:01.300Z,21.75
2018-03-11T14:04:29.634Z,20.93
2018-03-11T14:06:57.946Z,20.96
2018-03-11T14:09:26.269Z,20.79
2018-03-11T14:11:54.590Z,20.79
2018-03-11T14:14:22.936Z,20.46
2018-03-11T14:16:51.270Z,20.15
2018-03-11T14:19:19.835Z,19.76
2018-03-11T14:21:48.140Z,19.59
2018-03-11T14:24:16.497Z,19.31
2018-03-11T14:26:44.930Z,19.18
2018-03-11T14:29:13.237Z,19.35
2018-03-11T14:31:41.591Z,19.19
2018-03-11T14:34:09.913Z,19.10
2018-03-11T14:36:38.264Z,18.73
2018-03-11T14:39:06.583Z,18.60
2018-03-11T14:41:34.907Z,18.66
2018-03-11T14:44:03.227Z,18.43
2018-03-11T14:46:31.550Z,18.33
2018-03-11T14:48:59.894Z,18.18
2018-03-11T14:51:28.229Z,18.17
2018-03-11T14:53:56.536Z,18.12
2018-03-11T14:56:24.971Z,18.07
2018-03-11T14:58:53.312Z,18.13
2018-03-11T15:01:21.671Z,18.13
2018-03-11T15:03:50.004Z,18.23
2018-03-11T15:06:18.398Z,18.02
2018-03-11T15:08:46.704Z,17.87
2018-03-11T15:11:15.056Z,17.81
2018-03-11T15:13:43.382Z,17.70
2018-03-11T15:16:12.129Z,17.59
2018-03-11T15:18:40.539Z,17.53
2018-03-11T15:21:08.900Z,17.44
2018-03-11T15:23:37.314Z,17.34
2018-03-11T15:26:05.638Z,17.34
2018-03-11T15:28:33.973Z,17.26
2018-03-11T15:31:02.315Z,17.35
2018-03-11T15:33:30.732Z,17.29
2018-03-11T15:35:59.016Z,17.12
2018-03-11T15:38:27.351Z,17.12
2018-03-11T15:40:55.741Z,17.14
2018-03-11T15:43:24.102Z,17.08
2018-03-11T15:45:52.437Z,16.90
2018-03-11T15:48:20.790Z,16.82
2018-03-11T15:50:49.129Z,16.78
2018-03-11T15:53:17.472Z,16.67
2018-03-11T15:55:45.829Z,16.65
2018-03-11T15:58:14.158Z,16.59
2018-03-11T16:00:42.497Z,16.54
2018-03-11T16:03:10.847Z,16.40
2018-03-11T16:05:39.183Z,16.36
2018-03-11T16:08:07.508Z,16.34
2018-03-11T16:10:35.833Z,16.24
2018-03-11T16:13:04.188Z,16.19
2018-03-11T16:15:32.512Z,16.10
2018-03-11T16:18:00.862Z,16.07
2018-03-11T16:20:29.223Z,16.00
2018-03-11T16:22:57.528Z,15.98
2018-03-11T16:25:25.847Z,15.92
2018-03-11T16:27:54.245Z,15.89
2018-03-11T16:30:22.578Z,15.83
2018-03-11T16:32:50.930Z,15.83
2018-03-11T16:35:19.282Z,15.78
2018-03-11T16:37:47.605Z,15.74
2018-03-11T16:40:15.938Z,15.67
2018-03-11T16:42:44.285Z,15.61
2018-03-11T16:45:13.052Z,15.56
2018-03-11T16:47:41.374Z,15.51
2018-03-11T16:50:09.715Z,15.48
2018-03-11T16:52:38.078Z,15.42
2018-03-11T16:55:06.406Z,15.43
2018-03-11T16:57:34.726Z,15.36
2018-03-11T17:00:03.060Z,15.32
2018-03-11T17:02:31.385Z,15.30
2018-03-11T17:04:59.718Z,15.32
2018-03-11T17:07:28.051Z,15.26
2018-03-11T17:09:56.386Z,15.24
2018-03-11T17:12:24.719Z,15.18
2018-03-11T17:14:53.079Z,15.16
2018-03-11T17:17:21.540Z,15.11
2018-03-11T17:19:50.577Z,15.08
2018-03-11T17:22:18.985Z,14.98
2018-03-11T17:24:47.365Z,14.95
2018-03-11T17:27:15.688Z,14.90
2018-03-11T17:29:44.064Z,14.84
2018-03-11T17:32:12.402Z,14.75
2018-03-11T17:34:40.846Z,14.70
2018-03-11T17:37:09.183Z,14.61
2018-03-11T17:39:37.622Z,14.60
2018-03-11T17:42:05.955Z,14.60
2018-03-11T17:44:34.297Z,14.60
2018-03-11T17:47:02.631Z,14.57
2018-03-11T17:49:30.994Z,14.53
2018-03-11T17:51:59.377Z,14.53
2018-03-11T17:54:27.689Z,14.49
2018-03-11T17:56:56.039Z,14.46
2018-03-11T17:59:24.416Z,14.42
2018-03-11T18:01:52.742Z,14.41
2018-03-11T18:04:21.136Z,14.38
2018-03-11T18:06:49.457Z,14.36
2018-03-11T18:09:17.785Z,14.34
2018-03-11T18:11:46.136Z,14.29
2018-03-11T18:14:14.520Z,14.25
2018-03-11T18:16:42.876Z,14.24
2018-03-11T18:19:11.198Z,14.21
2018-03-11T18:21:39.547Z,14.19
2018-03-11T18:24:07.895Z,14.14
2018-03-11T18:26:37.245Z,14.13
2018-03-11T18:29:05.571Z,14.03
2018-03-11T18:31:33.916Z,13.99
2018-03-11T18:34:02.242Z,13.96
2018-03-11T18:36:30.570Z,14.00
2018-03-11T18:38:58.925Z,13.98
2018-03-11T18:41:27.347Z,13.99
2018-03-11T18:43:55.697Z,13.93
2018-03-11T18:46:24.026Z,13.97
2018-03-11T18:48:52.383Z,13.97
2018-03-11T18:51:20.719Z,13.96
2018-03-11T18:53:49.032Z,13.92
2018-03-11T18:56:17.376Z,13.90
2018-03-11T18:58:45.750Z,13.87
2018-03-11T19:01:14.079Z,13.80
2018-03-11T19:03:42.442Z,13.71
2018-03-11T19:06:10.808Z,13.67
2018-03-11T19:08:39.118Z,13.62
2018-03-11T19:11:07.457Z,13.59
2018-03-11T19:13:35.794Z,13.52
2018-03-11T19:16:04.166Z,13.49
2018-03-11T19:18:32.571Z,13.44
2018-03-11T19:21:00.886Z,13.38
2018-03-11T19:23:29.286Z,13.36
2018-03-11T19:25:57.608Z,13.30
2018-03-11T19:28:25.953Z,13.23
2018-03-11T19:30:54.288Z,13.22
2018-03-11T19:33:22.672Z,13.16
2018-03-11T19:35:51.099Z,13.14
2018-03-11T19:38:19.437Z,13.13
2018-03-11T19:40:47.771Z,13.06
2018-03-11T19:43:16.107Z,13.02
2018-03-11T19:45:44.456Z,12.95
2018-03-11T19:48:12.823Z,12.90
2018-03-11T19:50:41.254Z,12.88
2018-03-11T19:53:09.632Z,12.84
2018-03-11T19:55:38.032Z,12.83
2018-03-11T19:58:06.378Z,12.79
2018-03-11T20:00:34.757Z,12.75
2018-03-11T20:03:03.139Z,12.75
2018-03-11T20:05:31.463Z,12.70
2018-03-11T20:07:59.807Z,12.65
2018-03-11T20:10:28.152Z,12.62
2018-03-11T20:12:56.485Z,12.59
2018-03-11T20:15:24.821Z,12.52
2018-03-11T20:17:53.181Z,12.48
2018-03-11T20:20:21.524Z,12.43
2018-03-11T20:22:50.845Z,12.40
2018-03-11T20:25:19.202Z,12.36
2018-03-11T20:27:47.652Z,12.29
2018-03-11T20:30:16.315Z,12.24
2018-03-11T20:32:44.661Z,12.20
2018-03-11T20:35:12.994Z,12.19
2018-03-11T20:37:41.415Z,12.14
2018-03-11T20:40:13.463Z,12.16
2018-03-11T20:42:41.794Z,12.12
2018-03-11T20:45:11.049Z,12.12
2018-03-11T20:47:39.387Z,12.11
2018-03-11T20:50:07.840Z,12.12
2018-03-11T20:52:36.174Z,12.08
2018-03-11T20:55:04.485Z,12.05
2018-03-11T20:57:32.826Z,12.09
2018-03-11T21:00:01.364Z,12.06
2018-03-11T21:02:29.729Z,12.08
2018-03-11T21:04:58.113Z,12.05
2018-03-11T21:07:26.576Z,12.05
2018-03-11T21:09:54.899Z,12.00
2018-03-11T21:12:23.239Z,11.98
2018-03-11T21:14:51.629Z,11.97
2018-03-11T21:17:19.958Z,11.92
2018-03-11T21:19:48.276Z,11.90
2018-03-11T21:22:16.636Z,11.88
2018-03-11T21:24:44.982Z,11.86
2018-03-11T21:27:13.326Z,11.87
2018-03-11T21:29:41.673Z,11.86
2018-03-11T21:32:10.190Z,11.83
2018-03-11T21:34:38.533Z,11.84
2018-03-11T21:37:06.853Z,11.84
2018-03-11T21:39:35.310Z,11.83
2018-03-11T21:42:03.744Z,11.86
2018-03-11T21:44:32.160Z,11.87
2018-03-11T21:47:00.591Z,11.87
2018-03-11T21:49:28.935Z,11.82
2018-03-11T21:51:57.753Z,11.79
2018-03-11T21:54:26.157Z,11.74
2018-03-11T21:56:54.531Z,11.75
2018-03-11T21:59:22.925Z,11.75
2018-03-11T22:01:51.434Z,11.71
2018-03-11T22:04:19.758Z,11.70
2018-03-11T22:06:48.474Z,11.69
2018-03-11T22:09:16.803Z,11.73
2018-03-11T22:11:45.131Z,11.67
2018-03-11T22:14:13.517Z,11.66
2018-03-11T22:16:41.886Z,11.64
2018-03-11T22:19:10.230Z,11.57
2018-03-11T22:21:38.567Z,11.52
2018-03-11T22:24:06.909Z,11.48
2018-03-11T22:26:35.327Z,11.49
2018-03-11T22:29:03.678Z,11.47
2018-03-11T22:31:31.991Z,11.51
2018-03-11T22:34:07.105Z,11.48
2018-03-11T22:36:36.173Z,11.49
2018-03-11T22:39:04.490Z,11.47
2018-03-11T22:41:32.929Z,11.44
2018-03-11T22:44:01.357Z,11.43
2018-03-11T22:46:29.693Z,11.44
2018-03-11T22:48:58.032Z,11.42
2018-03-11T22:51:26.382Z,11.39
2018-03-11T22:53:54.706Z,11.39
2018-03-11T22:56:23.037Z,11.41
2018-03-11T22:58:51.367Z,11.36
2018-03-11T23:01:19.768Z,11.34
2018-03-11T23:03:48.171Z,11.33
2018-03-11T23:06:16.505Z,11.32
2018-03-11T23:08:44.825Z,11.31
2018-03-11T23:11:13.154Z,11.25
2018-03-11T23:13:41.482Z,11.33
2018-03-11T23:18:49.152Z,11.27
2018-03-11T23:21:17.552Z,11.27
2018-03-11T23:23:45.868Z,11.21
2018-03-11T23:26:14.213Z,11.19
2018-03-11T23:28:42.526Z,11.19
2018-03-11T23:31:10.867Z,11.20
2018-03-11T23:33:39.179Z,11.20
2018-03-11T23:36:07.527Z,11.17
2018-03-11T23:38:35.855Z,11.14
2018-03-11T23:41:04.173Z,11.15
2018-03-11T23:43:32.583Z,11.15
2018-03-11T23:46:00.906Z,11.17
2018-03-11T23:48:29.355Z,11.12
2018-03-11T23:50:57.693Z,11.10
2018-03-11T23:53:26.032Z,11.07
2018-03-11T23:55:54.418Z,11.04
2018-03-11T23:58:22.921Z,10.99
